Time;durP1;ratioP1;P1;durP2;ratioP2;P2;SDS_P1;SDS_P2;PMS_P1;PMS_P2;Temp;Humidity;BMP_temperature;BMP_pressure;BME280_temperature;BME280_humidity;BME280_pressure;Samples;Min_cycle;Max_cycle;Signal;HPM_P1;HPM_P2
2022/04/08 00:00:03;;;;;;;;;;;23.10;34.20;;;;;;680557;29;852;-79
2022/04/08 00:00:24;;;;;;;;;;;23.10;34.20;;;;;;680564;29;875;-80
2022/04/08 00:00:44;;;;;;;;;;;23.10;34.20;;;;;;680734;29;788;-79
2022/04/08 00:01:07;;;;;;;;;;;23.10;34.10;;;;;;683254;29;903;-79
2022/04/08 00:01:27;;;;;;;;;;;23.10;34.20;;;;;;683333;29;863;-80
2022/04/08 00:01:48;;;;;;;;;;;23.10;34.10;;;;;;683258;29;891;-80
2022/04/08 00:02:08;;;;;;;;;;;23.10;34.10;;;;;;683243;29;1398;-79
2022/04/08 00:02:29;;;;;;;;;;;23.10;34.10;;;;;;680031;29;1218;-79
2022/04/08 00:02:50;;;;;;;;;;;23.10;34.20;;;;;;680385;29;1262;-79
2022/04/08 00:03:10;;;;;;;;;;;23.10;34.20;;;;;;680354;29;800;-79
2022/04/08 00:03:31;;;;;;;;;;;23.10;34.20;;;;;;680576;29;797;-79
2022/04/08 00:03:52;;;;;;;;;;;23.10;34.30;;;;;;677656;29;973;-80
2022/04/08 00:04:13;;;;;;;;;;;23.10;34.20;;;;;;677738;29;1149;-79
2022/04/08 00:04:33;;;;;;;;;;;23.10;34.20;;;;;;678209;29;880;-79
2022/04/08 00:04:55;;;;;;;;;;;23.10;34.10;;;;;;677801;29;860;-79
2022/04/08 00:05:16;;;;;;;;;;;23.10;34.00;;;;;;677762;29;796;-79
2022/04/08 00:05:36;;;;;;;;;;;23.10;33.90;;;;;;675880;29;1050;-79
2022/04/08 00:05:58;;;;;;;;;;;23.10;33.90;;;;;;677913;29;859;-80
2022/04/08 00:06:20;;;;;;;;;;;23.10;34.00;;;;;;677846;29;736;-80
2022/04/08 00:06:41;;;;;;;;;;;23.10;34.10;;;;;;675889;29;904;-79
2022/04/08 00:07:01;;;;;;;;;;;23.10;34.20;;;;;;677904;29;887;-80
2022/04/08 00:07:22;;;;;;;;;;;23.10;34.20;;;;;;678315;29;907;-79
2022/04/08 00:07:43;;;;;;;;;;;23.10;34.10;;;;;;680436;29;903;-79
2022/04/08 00:08:04;;;;;;;;;;;23.00;34.20;;;;;;680467;29;887;-80
2022/04/08 00:08:24;;;;;;;;;;;23.00;34.10;;;;;;680901;29;1068;-80
2022/04/08 00:08:46;;;;;;;;;;;23.00;34.20;;;;;;683300;29;867;-79
2022/04/08 00:09:06;;;;;;;;;;;23.00;34.10;;;;;;683223;29;868;-80
2022/04/08 00:09:27;;;;;;;;;;;23.10;34.20;;;;;;683111;29;958;-81
2022/04/08 00:09:48;;;;;;;;;;;23.10;34.20;;;;;;683081;29;887;-80
2022/04/08 00:10:09;;;;;;;;;;;23.00;34.20;;;;;;683241;29;816;-80
2022/04/08 00:10:29;;;;;;;;;;;25.00;35.20;;;;;;683251;29;1962;-79
2022/04/08 00:10:50;;;;;;;;;;;23.00;34.00;;;;;;683278;29;875;-80
2022/04/08 00:11:11;;;;;;;;;;;23.10;34.20;;;;;;683209;29;892;-81
2022/04/08 00:11:31;;;;;;;;;;;23.00;34.00;;;;;;683339;29;812;-80
2022/04/08 00:11:52;;;;;;;;;;;23.00;33.90;;;;;;683173;29;863;-80
2022/04/08 00:12:13;;;;;;;;;;;23.00;34.00;;;;;;683322;29;847;-80
2022/04/08 00:12:33;;;;;;;;;;;23.10;34.00;;;;;;683077;29;897;-80
2022/04/08 00:12:54;;;;;;;;;;;22.90;33.80;;;;;;683448;29;859;-81
2022/04/08 00:13:15;;;;;;;;;;;23.00;33.90;;;;;;683243;29;895;-80
2022/04/08 00:13:35;;;;;;;;;;;23.00;33.90;;;;;;683260;29;848;-80
2022/04/08 00:13:56;;;;;;;;;;;23.00;33.90;;;;;;680353;29;1407;-80
2022/04/08 00:14:18;;;;;;;;;;;23.00;33.90;;;;;;680443;29;823;-79
2022/04/08 00:14:39;;;;;;;;;;;23.00;33.90;;;;;;680460;29;789;-80
2022/04/08 00:14:59;;;;;;;;;;;23.00;33.90;;;;;;680128;29;1266;-81
2022/04/08 00:15:20;;;;;;;;;;;23.00;34.00;;;;;;680379;29;677;-79
2022/04/08 00:15:41;;;;;;;;;;;23.00;33.90;;;;;;680372;29;843;-80
2022/04/08 00:16:01;;;;;;;;;;;23.00;33.80;;;;;;680506;29;978;-80
2022/04/08 00:16:22;;;;;;;;;;;23.00;33.80;;;;;;680408;29;812;-79
2022/04/08 00:16:43;;;;;;;;;;;23.00;33.70;;;;;;680702;29;871;-80
2022/04/08 00:17:04;;;;;;;;;;;23.00;33.90;;;;;;683261;29;872;-80
2022/04/08 00:17:25;;;;;;;;;;;23.00;33.70;;;;;;683219;29;856;-80
2022/04/08 00:17:45;;;;;;;;;;;23.00;33.90;;;;;;683274;29;792;-80
2022/04/08 00:18:06;;;;;;;;;;;23.00;33.90;;;;;;680149;29;1321;-80
2022/04/08 00:18:29;;;;;;;;;;;23.00;34.00;;;;;;680531;29;864;-80
2022/04/08 00:18:50;;;;;;;;;;;23.00;34.00;;;;;;680301;29;1371;-80
2022/04/08 00:19:10;;;;;;;;;;;23.00;34.10;;;;;;677728;29;808;-80
2022/04/08 00:19:31;;;;;;;;;;;22.90;34.10;;;;;;677827;29;821;-80
2022/04/08 00:19:52;;;;;;;;;;;22.90;34.00;;;;;;677829;29;777;-80
2022/04/08 00:20:12;;;;;;;;;;;23.00;34.00;;;;;;677861;29;978;-79
2022/04/08 00:20:34;;;;;;;;;;;22.90;34.10;;;;;;678087;29;816;-79
2022/04/08 00:20:54;;;;;;;;;;;22.90;34.10;;;;;;680916;29;832;-80
2022/04/08 00:21:15;;;;;;;;;;;22.90;34.10;;;;;;683140;29;1347;-80
2022/04/08 00:21:36;;;;;;;;;;;23.00;35.20;;;;;;683261;29;796;-80
2022/04/08 00:21:56;;;;;;;;;;;22.90;34.00;;;;;;683325;29;887;-80
2022/04/08 00:22:21;;;;;;;;;;;22.90;34.00;;;;;;683204;29;895;-80
2022/04/08 00:22:42;;;;;;;;;;;22.90;34.00;;;;;;683237;29;800;-81
2022/04/08 00:23:03;;;;;;;;;;;22.90;34.10;;;;;;683307;29;930;-81
2022/04/08 00:23:24;;;;;;;;;;;22.90;34.10;;;;;;683273;29;1264;-80
2022/04/08 00:23:45;;;;;;;;;;;22.90;34.00;;;;;;683238;29;883;-81
2022/04/08 00:24:07;;;;;;;;;;;22.90;34.10;;;;;;683191;29;812;-81
2022/04/08 00:24:27;;;;;;;;;;;22.90;34.10;;;;;;683306;29;926;-80
2022/04/08 00:24:48;;;;;;;;;;;22.90;34.20;;;;;;680243;29;892;-80
2022/04/08 00:25:09;;;;;;;;;;;22.90;34.10;;;;;;680389;29;809;-81
2022/04/08 00:25:29;;;;;;;;;;;22.90;34.20;;;;;;680510;29;967;-81
2022/04/08 00:25:50;;;;;;;;;;;22.90;34.20;;;;;;680356;29;871;-81
2022/04/08 00:26:11;;;;;;;;;;;22.90;34.20;;;;;;680435;29;808;-81
2022/04/08 00:26:31;;;;;;;;;;;22.90;34.10;;;;;;680718;29;883;-80
2022/04/08 00:26:52;;;;;;;;;;;22.90;34.10;;;;;;683241;29;828;-80
2022/04/08 00:27:12;;;;;;;;;;;22.90;34.10;;;;;;683219;29;907;-81
2022/04/08 00:27:33;;;;;;;;;;;22.90;34.10;;;;;;680318;29;865;-80
2022/04/08 00:27:53;;;;;;;;;;;22.90;34.10;;;;;;680514;29;943;-81
2022/04/08 00:28:14;;;;;;;;;;;22.90;34.20;;;;;;680405;29;796;-81
2022/04/08 00:28:34;;;;;;;;;;;22.90;34.10;;;;;;680326;29;824;-81
2022/04/08 00:28:55;;;;;;;;;;;22.90;34.10;;;;;;680475;29;875;-80
2022/04/08 00:29:16;;;;;;;;;;;22.90;34.10;;;;;;680668;29;839;-80
2022/04/08 00:29:36;;;;;;;;;;;22.90;34.20;;;;;;683109;29;1349;-80
2022/04/08 00:29:57;;;;;;;;;;;22.90;34.10;;;;;;683309;29;870;-81
2022/04/08 00:30:17;;;;;;;;;;;22.90;34.10;;;;;;683108;29;1295;-81
2022/04/08 00:30:38;;;;;;;;;;;22.90;34.10;;;;;;679673;29;1875;-80
2022/04/08 00:30:58;;;;;;;;;;;22.90;34.10;;;;;;680540;29;815;-81
2022/04/08 00:31:19;;;;;;;;;;;22.90;34.00;;;;;;680371;29;812;-81
2022/04/08 00:31:39;;;;;;;;;;;22.90;34.00;;;;;;677298;29;1092;-80
2022/04/08 00:32:00;;;;;;;;;;;22.90;34.00;;;;;;677759;29;1313;-81
2022/04/08 00:32:21;;;;;;;;;;;22.90;34.10;;;;;;677762;29;876;-80
2022/04/08 00:32:41;;;;;;;;;;;22.90;34.10;;;;;;675035;29;1104;-80
2022/04/08 00:33:02;;;;;;;;;;;22.90;34.10;;;;;;675206;29;802;-80
2022/04/08 00:33:22;;;;;;;;;;;22.90;34.10;;;;;;675450;29;816;-80
2022/04/08 00:33:43;;;;;;;;;;;22.90;34.00;;;;;;675375;29;1000;-80
2022/04/08 00:34:03;;;;;;;;;;;22.90;34.10;;;;;;677626;29;1106;-81
2022/04/08 00:34:25;;;;;;;;;;;22.90;34.10;;;;;;678084;29;936;-81
2022/04/08 00:34:45;;;;;;;;;;;22.90;34.00;;;;;;680291;29;867;-80
2022/04/08 00:35:06;;;;;;;;;;;22.90;34.10;;;;;;680424;29;812;-81
2022/04/08 00:35:27;;;;;;;;;;;22.90;34.10;;;;;;680812;29;753;-81
2022/04/08 00:35:47;;;;;;;;;;;22.90;34.20;;;;;;683074;29;1346;-81
2022/04/08 00:36:08;;;;;;;;;;;22.90;34.10;;;;;;683185;29;855;-81
2022/04/08 00:36:28;;;;;;;;;;;22.90;34.10;;;;;;683252;29;875;-81
2022/04/08 00:36:49;;;;;;;;;;;22.90;34.10;;;;;;680192;29;1494;-80
2022/04/08 00:37:09;;;;;;;;;;;22.90;34.10;;;;;;680394;29;911;-81
2022/04/08 00:37:30;;;;;;;;;;;22.90;34.10;;;;;;677848;29;1269;-81
2022/04/08 00:37:51;;;;;;;;;;;22.80;34.00;;;;;;675087;29;1112;-81
2022/04/08 00:38:11;;;;;;;;;;;22.90;34.00;;;;;;675141;29;543;-80
2022/04/08 00:38:32;;;;;;;;;;;22.90;34.00;;;;;;675558;29;813;-80
2022/04/08 00:38:53;;;;;;;;;;;22.90;34.10;;;;;;677801;29;844;-80
2022/04/08 00:39:14;;;;;;;;;;;22.80;34.00;;;;;;678125;29;943;-81
2022/04/08 00:39:34;;;;;;;;;;;22.90;34.00;;;;;;680751;29;851;-80
2022/04/08 00:39:55;;;;;;;;;;;22.90;34.10;;;;;;683262;29;871;-80
2022/04/08 00:40:15;;;;;;;;;;;22.80;34.00;;;;;;683301;29;871;-81
2022/04/08 00:40:36;;;;;;;;;;;22.90;34.00;;;;;;683203;29;847;-80
2022/04/08 00:40:56;;;;;;;;;;;22.80;34.00;;;;;;679844;29;1251;-81
2022/04/08 00:41:17;;;;;;;;;;;22.80;34.00;;;;;;680351;29;843;-80
2022/04/08 00:41:38;;;;;;;;;;;25.70;35.80;;;;;;680484;29;508;-80
2022/04/08 00:42:01;;;;;;;;;;;22.80;34.00;;;;;;680428;29;789;-80
2022/04/08 00:42:21;;;;;;;;;;;22.90;34.10;;;;;;680387;29;875;-80
2022/04/08 00:42:43;;;;;;;;;;;22.80;34.00;;;;;;678162;29;1274;-81
2022/04/08 00:43:13;;;;;;;;;;;22.80;34.00;;;;;;680336;29;896;-80
2022/04/08 00:43:37;;;;;;;;;;;22.80;34.00;;;;;;680365;29;844;-81
2022/04/08 00:43:57;;;;;;;;;;;22.80;34.00;;;;;;680415;29;835;-79
2022/04/08 00:44:18;;;;;;;;;;;22.80;34.00;;;;;;680398;29;874;-80
2022/04/08 00:44:39;;;;;;;;;;;22.80;34.00;;;;;;682549;29;882;-80
2022/04/08 00:44:59;;;;;;;;;;;22.80;34.00;;;;;;683173;29;926;-81
2022/04/08 00:45:20;;;;;;;;;;;22.80;34.00;;;;;;683188;29;895;-81
2022/04/08 00:45:41;;;;;;;;;;;22.80;34.00;;;;;;680226;29;1329;-81
2022/04/08 00:46:10;;;;;;;;;;;22.80;34.10;;;;;;680463;29;878;-81
2022/04/08 00:46:31;;;;;;;;;;;22.80;34.00;;;;;;680428;29;819;-80
2022/04/08 00:46:51;;;;;;;;;;;22.80;34.00;;;;;;680375;29;828;-80
2022/04/08 00:47:12;;;;;;;;;;;22.80;34.00;;;;;;680341;29;878;-80
2022/04/08 00:47:35;;;;;;;;;;;22.80;34.00;;;;;;682007;29;847;-81
2022/04/08 00:47:56;;;;;;;;;;;22.80;34.10;;;;;;683249;29;903;-81
2022/04/08 00:48:16;;;;;;;;;;;22.80;34.00;;;;;;683266;29;891;-79
2022/04/08 00:48:38;;;;;;;;;;;22.80;34.00;;;;;;683197;29;788;-80
2022/04/08 00:48:58;;;;;;;;;;;22.80;34.00;;;;;;683263;29;859;-80
2022/04/08 00:49:19;;;;;;;;;;;22.80;34.00;;;;;;683060;28;1598;-80
2022/04/08 00:49:39;;;;;;;;;;;22.80;34.00;;;;;;683181;29;918;-80
2022/04/08 00:50:00;;;;;;;;;;;22.80;34.00;;;;;;683330;29;796;-80
2022/04/08 00:50:22;;;;;;;;;;;22.80;34.00;;;;;;683143;29;800;-80
2022/04/08 00:50:43;;;;;;;;;;;22.80;34.00;;;;;;683145;29;855;-81
2022/04/08 00:51:05;;;;;;;;;;;22.80;34.10;;;;;;680238;29;1243;-80
2022/04/08 00:51:26;;;;;;;;;;;22.80;33.90;;;;;;680260;29;1325;-80
2022/04/08 00:51:46;;;;;;;;;;;22.80;33.90;;;;;;680289;29;899;-80
2022/04/08 00:52:07;;;;;;;;;;;22.80;34.00;;;;;;680309;29;887;-80
2022/04/08 00:52:28;;;;;;;;;;;22.80;34.00;;;;;;680466;29;891;-81
2022/04/08 00:52:49;;;;;;;;;;;22.80;34.00;;;;;;680899;29;791;-80
2022/04/08 00:53:09;;;;;;;;;;;22.80;34.00;;;;;;680157;29;1221;-80
2022/04/08 00:53:30;;;;;;;;;;;22.80;34.00;;;;;;680423;29;883;-81
2022/04/08 00:53:51;;;;;;;;;;;22.80;33.90;;;;;;680312;29;876;-81
2022/04/08 00:54:12;;;;;;;;;;;22.80;33.90;;;;;;680270;29;895;-81
2022/04/08 00:54:33;;;;;;;;;;;22.80;33.80;;;;;;680419;29;1364;-80
2022/04/08 00:54:54;;;;;;;;;;;22.80;33.80;;;;;;680963;29;836;-80
2022/04/08 00:55:14;;;;;;;;;;;22.80;33.80;;;;;;683104;29;835;-81
2022/04/08 00:55:36;;;;;;;;;;;22.80;33.80;;;;;;683088;29;808;-81
2022/04/08 00:55:58;;;;;;;;;;;22.90;33.90;;;;;;683246;29;875;-81
2022/04/08 00:56:18;;;;;;;;;;;22.80;33.80;;;;;;683206;29;799;-80
2022/04/08 00:56:39;;;;;;;;;;;22.80;33.80;;;;;;683190;29;839;-80
2022/04/08 00:57:00;;;;;;;;;;;22.80;33.90;;;;;;683280;29;863;-80
2022/04/08 00:57:20;;;;;;;;;;;22.80;33.90;;;;;;683130;29;907;-80
2022/04/08 00:57:41;;;;;;;;;;;22.80;33.90;;;;;;683178;29;808;-80
2022/04/08 00:58:03;;;;;;;;;;;22.80;34.00;;;;;;683235;29;1409;-81
2022/04/08 00:58:24;;;;;;;;;;;20.40;32.60;;;;;;680303;29;1223;-80
2022/04/08 00:58:44;;;;;;;;;;;22.80;34.00;;;;;;680285;29;898;-82
2022/04/08 00:59:05;;;;;;;;;;;22.90;34.20;;;;;;680356;29;839;-82
2022/04/08 00:59:25;;;;;;;;;;;22.90;34.20;;;;;;680400;29;895;-82
2022/04/08 00:59:46;;;;;;;;;;;22.80;34.20;;;;;;680307;29;840;-80
2022/04/08 01:00:08;;;;;;;;;;;22.90;34.10;;;;;;680704;29;836;-81
2022/04/08 01:00:32;;;;;;;;;;;22.90;35.10;;;;;;683257;29;870;-81
2022/04/08 01:00:53;;;;;;;;;;;22.90;34.10;;;;;;683260;29;874;-80
2022/04/08 01:01:14;;;;;;;;;;;22.90;34.10;;;;;;683102;29;851;-80
2022/04/08 01:01:35;;;;;;;;;;;22.90;34.00;;;;;;683150;29;835;-80
2022/04/08 01:01:56;;;;;;;;;;;22.90;34.00;;;;;;683251;29;946;-80
2022/04/08 01:02:17;;;;;;;;;;;22.90;34.00;;;;;;683149;29;811;-80
2022/04/08 01:02:38;;;;;;;;;;;22.90;34.00;;;;;;683174;29;879;-81
2022/04/08 01:02:58;;;;;;;;;;;22.90;34.00;;;;;;683217;29;922;-80
2022/04/08 01:03:19;;;;;;;;;;;22.90;34.00;;;;;;679769;29;963;-81
2022/04/08 01:03:39;;;;;;;;;;;22.90;34.00;;;;;;680312;29;851;-80
2022/04/08 01:04:00;;;;;;;;;;;22.90;33.90;;;;;;680532;29;968;-81
2022/04/08 01:04:21;;;;;;;;;;;23.50;34.20;;;;;;678015;29;1342;-81
2022/04/08 01:04:41;;;;;;;;;;;22.90;33.80;;;;;;678278;29;891;-81
2022/04/08 01:05:02;;;;;;;;;;;22.80;33.80;;;;;;678607;29;800;-81
2022/04/08 01:05:24;;;;;;;;;;;22.90;33.90;;;;;;680949;29;868;-80
2022/04/08 01:05:45;;;;;;;;;;;22.90;34.80;;;;;;680910;29;871;-80
2022/04/08 01:06:06;;;;;;;;;;;22.90;33.90;;;;;;678520;29;1249;-81
2022/04/08 01:06:27;;;;;;;;;;;22.90;34.00;;;;;;680977;29;923;-80
2022/04/08 01:06:47;;;;;;;;;;;22.90;34.10;;;;;;680883;29;796;-81
2022/04/08 01:07:08;;;;;;;;;;;22.90;33.90;;;;;;680874;29;839;-80
2022/04/08 01:07:30;;;;;;;;;;;22.90;33.90;;;;;;680947;29;914;-81
2022/04/08 01:07:51;;;;;;;;;;;22.90;33.90;;;;;;681456;29;986;-80
2022/04/08 01:08:14;;;;;;;;;;;22.90;34.00;;;;;;683619;29;895;-81
2022/04/08 01:08:35;;;;;;;;;;;22.90;34.00;;;;;;683774;29;823;-81
2022/04/08 01:08:56;;;;;;;;;;;22.90;34.00;;;;;;683753;29;823;-81
2022/04/08 01:09:16;;;;;;;;;;;22.90;33.90;;;;;;683693;29;844;-80
2022/04/08 01:09:37;;;;;;;;;;;22.90;33.80;;;;;;683699;29;891;-81
2022/04/08 01:09:57;;;;;;;;;;;22.90;33.90;;;;;;683806;29;780;-81
2022/04/08 01:10:18;;;;;;;;;;;22.90;33.90;;;;;;683671;29;891;-80
2022/04/08 01:10:40;;;;;;;;;;;22.90;33.80;;;;;;680731;29;1922;-82
2022/04/08 01:11:01;;;;;;;;;;;22.90;33.70;;;;;;681048;29;871;-81
2022/04/08 01:11:22;;;;;;;;;;;22.90;33.70;;;;;;680793;29;907;-81
2022/04/08 01:11:43;;;;;;;;;;;22.90;33.70;;;;;;680893;29;836;-81
2022/04/08 01:12:03;;;;;;;;;;;22.90;33.70;;;;;;677784;29;852;-81
2022/04/08 01:12:24;;;;;;;;;;;22.90;33.70;;;;;;678890;29;784;-81
2022/04/08 01:12:45;;;;;;;;;;;22.90;33.70;;;;;;680871;29;887;-81
2022/04/08 01:13:05;;;;;;;;;;;22.90;33.70;;;;;;680837;29;891;-81
2022/04/08 01:13:26;;;;;;;;;;;22.90;33.70;;;;;;680880;29;1334;-82
2022/04/08 01:13:47;;;;;;;;;;;22.90;33.70;;;;;;681200;29;769;-81
2022/04/08 01:14:11;;;;;;;;;;;22.90;33.70;;;;;;683661;29;843;-81
2022/04/08 01:14:31;;;;;;;;;;;22.90;33.90;;;;;;683692;29;977;-81
2022/04/08 01:14:56;;;;;;;;;;;22.90;33.80;;;;;;683726;29;784;-81
2022/04/08 01:15:17;;;;;;;;;;;23.00;34.80;;;;;;683702;29;911;-81
2022/04/08 01:15:38;;;;;;;;;;;22.90;33.80;;;;;;683599;29;827;-81
2022/04/08 01:15:58;;;;;;;;;;;22.90;33.70;;;;;;683787;29;863;-81
2022/04/08 01:16:22;;;;;;;;;;;22.90;33.60;;;;;;683733;29;800;-81
2022/04/08 01:16:43;;;;;;;;;;;22.90;33.80;;;;;;683621;29;835;-81
2022/04/08 01:17:04;;;;;;;;;;;22.90;33.70;;;;;;683692;29;851;-81
2022/04/08 01:17:24;;;;;;;;;;;22.90;33.70;;;;;;683825;29;784;-79
2022/04/08 01:17:45;;;;;;;;;;;22.90;33.80;;;;;;683788;29;875;-81
2022/04/08 01:18:06;;;;;;;;;;;22.90;33.80;;;;;;683674;29;799;-80
2022/04/08 01:18:26;;;;;;;;;;;22.90;33.70;;;;;;683691;29;899;-81
2022/04/08 01:18:47;;;;;;;;;;;22.90;33.60;;;;;;683627;29;902;-81
2022/04/08 01:19:08;;;;;;;;;;;22.90;33.70;;;;;;680217;29;1135;-81
2022/04/08 01:19:28;;;;;;;;;;;22.90;33.80;;;;;;680960;29;891;-81
2022/04/08 01:19:49;;;;;;;;;;;22.90;33.90;;;;;;680829;29;886;-82
2022/04/08 01:20:10;;;;;;;;;;;22.90;33.80;;;;;;680827;29;1332;-82
2022/04/08 01:20:30;;;;;;;;;;;22.90;33.70;;;;;;680905;29;891;-81
2022/04/08 01:20:51;;;;;;;;;;;22.90;33.80;;;;;;680769;29;915;-81
2022/04/08 01:21:11;;;;;;;;;;;22.80;33.70;;;;;;680865;29;776;-81
2022/04/08 01:21:32;;;;;;;;;;;22.90;33.70;;;;;;680951;29;892;-81
2022/04/08 01:21:53;;;;;;;;;;;22.90;33.60;;;;;;681412;29;879;-82
2022/04/08 01:22:14;;;;;;;;;;;22.90;33.60;;;;;;683770;29;851;-81
2022/04/08 01:22:35;;;;;;;;;;;22.90;33.70;;;;;;683614;29;935;-81
2022/04/08 01:22:55;;;;;;;;;;;22.90;33.70;;;;;;683823;29;780;-81
2022/04/08 01:23:19;;;;;;;;;;;22.90;33.60;;;;;;683630;29;875;-81
2022/04/08 01:23:43;;;;;;;;;;;22.90;33.80;;;;;;683641;29;867;-81
2022/04/08 01:24:04;;;;;;;;;;;22.90;33.70;;;;;;683681;29;820;-81
2022/04/08 01:24:26;;;;;;;;;;;22.90;33.70;;;;;;683849;29;850;-81
2022/04/08 01:24:49;;;;;;;;;;;22.90;33.70;;;;;;683648;29;808;-81
2022/04/08 01:25:10;;;;;;;;;;;22.90;33.60;;;;;;683755;29;879;-81
2022/04/08 01:25:31;;;;;;;;;;;22.90;33.80;;;;;;683853;29;843;-81
2022/04/08 01:25:51;;;;;;;;;;;22.90;33.80;;;;;;683644;29;839;-80
2022/04/08 01:26:12;;;;;;;;;;;22.90;33.80;;;;;;680725;29;1326;-81
2022/04/08 01:26:32;;;;;;;;;;;22.90;33.80;;;;;;680927;29;804;-81
2022/04/08 01:26:53;;;;;;;;;;;22.90;33.70;;;;;;681003;29;879;-81
2022/04/08 01:27:16;;;;;;;;;;;22.90;33.70;;;;;;678070;29;1381;-80
2022/04/08 01:27:38;;;;;;;;;;;22.90;33.80;;;;;;678221;29;1006;-80
2022/04/08 01:27:58;;;;;;;;;;;22.90;33.50;;;;;;679140;29;828;-81
2022/04/08 01:28:19;;;;;;;;;;;22.90;33.50;;;;;;678329;29;1085;-81
2022/04/08 01:28:39;;;;;;;;;;;22.90;33.50;;;;;;678211;29;765;-80
2022/04/08 01:29:00;;;;;;;;;;;22.90;33.60;;;;;;678196;29;1092;-80
2022/04/08 01:29:20;;;;;;;;;;;22.90;33.60;;;;;;678029;29;840;-80
2022/04/08 01:29:41;;;;;;;;;;;22.90;33.50;;;;;;678252;29;792;-80
2022/04/08 01:30:03;;;;;;;;;;;22.90;33.60;;;;;;675593;29;1346;-79
2022/04/08 01:30:24;;;;;;;;;;;22.90;33.70;;;;;;675606;29;1986;-80
2022/04/08 01:30:44;;;;;;;;;;;22.90;33.70;;;;;;675923;29;907;-80
2022/04/08 01:31:05;;;;;;;;;;;23.00;33.80;;;;;;678653;29;785;-80
2022/04/08 01:31:29;;;;;;;;;;;23.00;33.60;;;;;;680824;29;887;-81
2022/04/08 01:31:49;;;;;;;;;;;23.00;33.70;;;;;;681861;29;930;-80
2022/04/08 01:32:10;;;;;;;;;;;23.00;33.70;;;;;;680820;29;836;-80
2022/04/08 01:32:32;;;;;;;;;;;23.00;33.60;;;;;;677888;29;900;-80
2022/04/08 01:32:52;;;;;;;;;;;23.00;33.50;;;;;;678141;29;966;-81
2022/04/08 01:33:13;;;;;;;;;;;23.00;33.50;;;;;;678203;29;824;-80
2022/04/08 01:33:33;;;;;;;;;;;23.00;33.50;;;;;;675482;29;1416;-80
2022/04/08 01:33:54;;;;;;;;;;;23.00;33.50;;;;;;675976;29;994;-80
2022/04/08 01:34:14;;;;;;;;;;;22.90;33.40;;;;;;678609;29;842;-81
2022/04/08 01:34:35;;;;;;;;;;;23.00;33.50;;;;;;678111;29;1224;-79
2022/04/08 01:34:55;;;;;;;;;;;23.00;33.40;;;;;;678323;29;808;-80
2022/04/08 01:35:16;;;;;;;;;;;22.90;33.30;;;;;;678393;29;804;-80
2022/04/08 01:35:36;;;;;;;;;;;23.00;33.30;;;;;;680778;29;877;-80
2022/04/08 01:35:57;;;;;;;;;;;21.50;32.50;;;;;;680902;29;938;-80
2022/04/08 01:36:18;;;;;;;;;;;22.90;33.30;;;;;;678443;29;1394;-81
2022/04/08 01:36:39;;;;;;;;;;;23.00;33.30;;;;;;680856;29;867;-80
2022/04/08 01:36:59;;;;;;;;;;;22.90;33.20;;;;;;680907;29;887;-81
2022/04/08 01:37:20;;;;;;;;;;;23.00;33.30;;;;;;680831;29;926;-80
2022/04/08 01:37:41;;;;;;;;;;;22.90;33.30;;;;;;680756;29;812;-80
2022/04/08 01:38:02;;;;;;;;;;;22.90;33.20;;;;;;681239;29;856;-80
2022/04/08 01:38:22;;;;;;;;;;;22.90;33.30;;;;;;683604;29;863;-80
2022/04/08 01:38:43;;;;;;;;;;;22.90;33.20;;;;;;683616;29;836;-80
2022/04/08 01:39:04;;;;;;;;;;;22.90;33.20;;;;;;683625;29;899;-80
2022/04/08 01:39:24;;;;;;;;;;;22.90;33.20;;;;;;683754;29;882;-80
2022/04/08 01:39:45;;;;;;;;;;;22.90;33.20;;;;;;680676;29;1330;-80
2022/04/08 01:40:06;;;;;;;;;;;22.90;33.20;;;;;;680794;29;879;-80
2022/04/08 01:40:26;;;;;;;;;;;22.90;33.20;;;;;;680970;29;811;-80
2022/04/08 01:40:47;;;;;;;;;;;22.20;32.80;;;;;;680785;29;811;-80
2022/04/08 01:41:07;;;;;;;;;;;22.90;33.20;;;;;;678124;29;953;-80
2022/04/08 01:41:30;;;;;;;;;;;22.90;33.20;;;;;;678720;29;863;-80
2022/04/08 01:41:51;;;;;;;;;;;22.90;33.10;;;;;;680715;29;949;-80
2022/04/08 01:42:11;;;;;;;;;;;22.90;33.10;;;;;;680787;29;872;-80
2022/04/08 01:42:32;;;;;;;;;;;22.90;33.10;;;;;;680897;29;1414;-80
2022/04/08 01:42:52;;;;;;;;;;;22.90;33.20;;;;;;681303;29;836;-80
2022/04/08 01:43:13;;;;;;;;;;;22.90;33.10;;;;;;683646;29;808;-80
2022/04/08 01:43:33;;;;;;;;;;;22.90;33.10;;;;;;683607;29;847;-80
2022/04/08 01:43:54;;;;;;;;;;;22.90;33.10;;;;;;680852;29;1259;-80
2022/04/08 01:44:14;;;;;;;;;;;22.90;33.20;;;;;;680899;29;788;-80
2022/04/08 01:44:35;;;;;;;;;;;22.90;33.20;;;;;;678118;29;829;-80
2022/04/08 01:44:56;;;;;;;;;;;22.90;33.20;;;;;;678281;29;888;-80
2022/04/08 01:45:16;;;;;;;;;;;22.90;33.20;;;;;;678222;29;868;-80
2022/04/08 01:45:37;;;;;;;;;;;23.40;33.50;;;;;;678458;29;934;-80
2022/04/08 01:45:58;;;;;;;;;;;22.80;33.10;;;;;;680668;29;1291;-80
2022/04/08 01:46:18;;;;;;;;;;;22.90;33.10;;;;;;680780;29;797;-81
2022/04/08 01:46:39;;;;;;;;;;;22.80;33.10;;;;;;680775;29;903;-80
2022/04/08 01:46:59;;;;;;;;;;;22.80;33.00;;;;;;678203;29;871;-81
2022/04/08 01:47:20;;;;;;;;;;;22.80;33.10;;;;;;678135;29;918;-80
2022/04/08 01:47:41;;;;;;;;;;;22.80;33.10;;;;;;678701;29;788;-80
2022/04/08 01:48:03;;;;;;;;;;;22.80;33.10;;;;;;680889;29;848;-81
2022/04/08 01:48:23;;;;;;;;;;;22.80;33.20;;;;;;680871;29;1288;-81
2022/04/08 01:48:44;;;;;;;;;;;22.80;33.20;;;;;;681380;29;836;-80
2022/04/08 01:49:05;;;;;;;;;;;;;;;;;;680579;29;1258;-80
2022/04/08 01:49:25;;;;;;;;;;;22.80;33.20;;;;;;680859;29;915;-80
2022/04/08 01:49:46;;;;;;;;;;;22.80;33.20;;;;;;680805;29;812;-81
2022/04/08 01:50:07;;;;;;;;;;;22.80;33.30;;;;;;680645;29;1108;-81
2022/04/08 01:50:27;;;;;;;;;;;22.80;33.10;;;;;;680748;29;1958;-81
2022/04/08 01:50:48;;;;;;;;;;;22.80;33.10;;;;;;681200;29;855;-80
2022/04/08 01:51:08;;;;;;;;;;;22.80;33.10;;;;;;683576;29;804;-80
2022/04/08 01:51:29;;;;;;;;;;;22.80;33.10;;;;;;683709;29;884;-81
2022/04/08 01:51:49;;;;;;;;;;;22.80;33.20;;;;;;683583;29;906;-81
2022/04/08 01:52:10;;;;;;;;;;;22.80;33.20;;;;;;683615;29;796;-80
2022/04/08 01:52:31;;;;;;;;;;;22.80;33.20;;;;;;680695;29;1239;-81
2022/04/08 01:52:51;;;;;;;;;;;22.80;33.20;;;;;;680653;29;899;-80
2022/04/08 01:53:13;;;;;;;;;;;22.80;33.20;;;;;;680756;29;848;-80
2022/04/08 01:53:34;;;;;;;;;;;22.80;33.20;;;;;;680850;29;804;-80
2022/04/08 01:53:54;;;;;;;;;;;22.80;33.20;;;;;;680826;29;923;-80
2022/04/08 01:54:15;;;;;;;;;;;22.80;33.20;;;;;;680768;29;946;-80
2022/04/08 01:54:35;;;;;;;;;;;22.80;33.30;;;;;;681143;29;816;-80
2022/04/08 01:54:56;;;;;;;;;;;22.80;33.20;;;;;;683729;29;800;-80
2022/04/08 01:55:18;;;;;;;;;;;22.80;33.20;;;;;;683395;29;1394;-80
2022/04/08 01:55:39;;;;;;;;;;;22.80;33.20;;;;;;683554;29;835;-80
2022/04/08 01:56:00;;;;;;;;;;;22.70;33.20;;;;;;683641;29;875;-80
2022/04/08 01:56:20;;;;;;;;;;;22.80;33.10;;;;;;680691;29;1123;-80
2022/04/08 01:56:41;;;;;;;;;;;22.80;33.20;;;;;;680739;29;848;-80
2022/04/08 01:57:01;;;;;;;;;;;22.80;33.10;;;;;;680799;29;895;-80
2022/04/08 01:57:23;;;;;;;;;;;22.80;33.10;;;;;;680754;29;808;-80
2022/04/08 01:57:44;;;;;;;;;;;22.80;33.10;;;;;;680811;29;856;-80
2022/04/08 01:58:05;;;;;;;;;;;22.80;33.10;;;;;;681180;29;911;-80
2022/04/08 01:58:25;;;;;;;;;;;22.80;33.10;;;;;;680768;29;1114;-80
2022/04/08 01:58:46;;;;;;;;;;;22.80;33.00;;;;;;680646;29;825;-81
2022/04/08 01:59:06;;;;;;;;;;;22.80;33.00;;;;;;680753;29;863;-80
2022/04/08 01:59:27;;;;;;;;;;;22.20;32.70;;;;;;680444;29;1189;-80
2022/04/08 01:59:48;;;;;;;;;;;22.80;33.10;;;;;;680734;29;848;-81
2022/04/08 02:00:09;;;;;;;;;;;22.80;33.00;;;;;;680786;29;812;-80
2022/04/08 02:00:30;;;;;;;;;;;22.80;32.90;;;;;;680877;29;788;-81
2022/04/08 02:00:50;;;;;;;;;;;22.80;33.10;;;;;;680591;29;785;-81
2022/04/08 02:01:11;;;;;;;;;;;22.80;33.10;;;;;;681162;29;785;-81
2022/04/08 02:01:32;;;;;;;;;;;22.80;33.00;;;;;;683715;29;902;-81
2022/04/08 02:01:53;;;;;;;;;;;22.80;33.00;;;;;;683599;29;867;-81
2022/04/08 02:02:13;;;;;;;;;;;22.80;33.00;;;;;;683638;29;931;-80
2022/04/08 02:02:34;;;;;;;;;;;22.80;33.00;;;;;;683535;29;974;-80
2022/04/08 02:02:55;;;;;;;;;;;22.70;33.00;;;;;;683649;29;895;-81
2022/04/08 02:03:19;;;;;;;;;;;22.80;33.00;;;;;;683578;29;808;-81
2022/04/08 02:03:40;;;;;;;;;;;22.70;33.00;;;;;;683619;29;859;-80
2022/04/08 02:04:00;;;;;;;;;;;22.80;32.90;;;;;;680315;29;1286;-80
2022/04/08 02:04:21;;;;;;;;;;;22.70;32.90;;;;;;677543;29;1375;-80
2022/04/08 02:04:41;;;;;;;;;;;22.70;32.90;;;;;;678195;29;606;-80
2022/04/08 02:05:02;;;;;;;;;;;22.70;33.00;;;;;;678177;29;849;-81
2022/04/08 02:05:23;;;;;;;;;;;22.70;33.10;;;;;;678104;29;777;-80
2022/04/08 02:05:43;;;;;;;;;;;22.70;33.10;;;;;;678494;29;844;-80
2022/04/08 02:06:04;;;;;;;;;;;22.70;33.20;;;;;;681017;29;1336;-81
2022/04/08 02:06:24;;;;;;;;;;;22.70;33.20;;;;;;680847;29;1125;-80
2022/04/08 02:06:45;;;;;;;;;;;22.70;33.20;;;;;;680800;29;847;-80
2022/04/08 02:07:06;;;;;;;;;;;22.70;33.20;;;;;;678136;29;1119;-80